createdAt,value
2018-01-01T00:01:17.716Z,30.05
2018-01-01T00:03:45.192Z,12.00
2018-01-01T00:06:12.737Z,6.70
2018-01-01T00:08:40.175Z,6.85
2018-01-01T00:11:07.623Z,8.05
2018-01-01T00:13:35.245Z,8.52
2018-01-01T00:16:02.706Z,8.30
2018-01-01T00:18:30.175Z,9.70
2018-01-01T00:20:58.378Z,7.15
2018-01-01T00:23:25.865Z,7.82
2018-01-01T00:25:53.310Z,6.22
2018-01-01T00:28:20.797Z,8.57
2018-01-01T00:30:49.075Z,5.45
2018-01-01T00:33:16.536Z,7.65
2018-01-01T00:35:43.994Z,6.30
2018-01-01T00:38:11.442Z,4.20
2018-01-01T00:40:38.959Z,4.22
2018-01-01T00:43:06.399Z,3.10
2018-01-01T00:45:33.855Z,3.60
2018-01-01T00:48:01.315Z,4.93
2018-01-01T00:50:28.821Z,5.75
2018-01-01T00:52:56.276Z,3.55
2018-01-01T00:55:23.760Z,4.40
2018-01-01T00:57:51.992Z,2.80
2018-01-01T01:00:19.468Z,10.25
2018-01-01T01:02:46.925Z,2.50
2018-01-01T01:05:14.364Z,3.62
2018-01-01T01:07:41.836Z,2.95
2018-01-01T01:10:09.301Z,3.90
2018-01-01T01:12:36.756Z,2.33
2018-01-01T01:15:04.236Z,2.08
2018-01-01T01:17:31.742Z,3.53
2018-01-01T01:19:59.163Z,4.60
2018-01-01T01:22:26.679Z,3.50
2018-01-01T01:27:28.166Z,3.08
2018-01-01T01:29:56.383Z,5.05
2018-01-01T01:32:23.839Z,3.67
2018-01-01T01:34:51.319Z,5.07
2018-01-01T01:37:18.773Z,2.95
2018-01-01T01:39:46.236Z,3.95
2018-01-01T01:42:13.724Z,5.07
2018-01-01T01:44:41.163Z,3.70
2018-01-01T01:47:08.637Z,5.78
2018-01-01T01:49:36.881Z,5.35
2018-01-01T01:52:04.320Z,8.95
2018-01-01T01:54:31.898Z,10.63
2018-01-01T01:56:59.371Z,5.87
2018-01-01T01:59:27.598Z,6.90
2018-01-01T02:01:55.065Z,6.47
2018-01-01T02:04:22.556Z,6.05
2018-01-01T02:06:50.775Z,4.40
2018-01-01T02:09:18.218Z,5.05
2018-01-01T02:11:45.714Z,4.25
2018-01-01T02:14:13.165Z,5.15
2018-01-01T02:16:40.622Z,3.45
2018-01-01T02:19:08.847Z,4.53
2018-01-01T02:21:37.090Z,3.80
2018-01-01T02:24:04.541Z,5.20
2018-01-01T02:26:31.983Z,6.85
2018-01-01T02:28:59.603Z,3.30
2018-01-01T02:31:27.060Z,5.30
2018-01-01T02:33:54.519Z,7.35
2018-01-01T02:36:21.987Z,9.85
2018-01-01T02:38:49.519Z,6.00
2018-01-01T02:41:16.974Z,4.82
2018-01-01T02:43:45.175Z,5.78
2018-01-01T02:46:12.668Z,3.75
2018-01-01T02:48:40.867Z,2.10
2018-01-01T02:51:09.076Z,4.62
2018-01-01T02:53:36.561Z,2.55
2018-01-01T02:56:03.995Z,5.97
2018-01-01T02:58:31.447Z,3.60
2018-01-01T03:00:58.899Z,4.75
2018-01-01T03:03:26.339Z,2.80
2018-01-01T03:05:53.781Z,4.37
2018-01-01T03:08:22.011Z,5.00
2018-01-01T03:10:49.438Z,8.40
2018-01-01T03:13:16.905Z,2.90
2018-01-01T03:15:44.358Z,4.37
2018-01-01T03:18:11.822Z,6.12
2018-01-01T03:20:39.332Z,3.20
2018-01-01T03:23:07.546Z,4.05
2018-01-01T03:25:35.016Z,4.37
2018-01-01T03:28:02.487Z,7.30
2018-01-01T03:30:30.063Z,4.45
2018-01-01T03:32:58.271Z,5.50
2018-01-01T03:35:25.726Z,5.62
2018-01-01T03:37:53.176Z,4.40
2018-01-01T03:40:20.645Z,2.80
2018-01-01T03:42:48.115Z,8.00
2018-01-01T03:45:15.646Z,5.20
2018-01-01T03:47:43.142Z,8.80
2018-01-01T03:50:10.592Z,4.97
2018-01-01T03:52:38.051Z,4.47
2018-01-01T03:55:05.499Z,4.72
2018-01-01T03:57:33.015Z,5.80
2018-01-01T04:00:01.257Z,3.28
2018-01-01T04:02:28.719Z,5.75
2018-01-01T04:04:56.158Z,3.33
2018-01-01T04:07:23.615Z,4.22
2018-01-01T04:09:51.079Z,7.35
2018-01-01T04:12:18.558Z,3.55
2018-01-01T04:14:45.982Z,8.95
2018-01-01T04:17:13.455Z,8.00
2018-01-01T04:19:40.884Z,6.47
2018-01-01T04:22:08.318Z,7.43
2018-01-01T04:24:35.883Z,7.20
2018-01-01T04:27:03.319Z,4.05
2018-01-01T04:29:30.780Z,5.37
2018-01-01T04:31:58.219Z,7.55
2018-01-01T04:34:26.443Z,3.35
2018-01-01T04:36:53.908Z,9.60
2018-01-01T04:39:21.419Z,3.22
2018-01-01T04:41:48.855Z,2.87
2018-01-01T04:44:17.070Z,5.12
2018-01-01T04:46:44.525Z,5.60
2018-01-01T04:49:11.953Z,4.43
2018-01-01T04:51:39.929Z,3.97
2018-01-01T04:54:08.114Z,5.62
2018-01-01T04:56:35.558Z,5.10
2018-01-01T04:59:03.013Z,4.32
2018-01-01T05:01:30.498Z,5.90
2018-01-01T05:03:57.980Z,2.35
2018-01-01T05:06:25.457Z,3.65
2018-01-01T05:08:53.694Z,3.28
2018-01-01T05:11:21.128Z,3.45
2018-01-01T05:13:48.571Z,1.95
2018-01-01T05:16:16.045Z,3.72
2018-01-01T05:18:43.548Z,2.75
2018-01-01T05:21:10.981Z,3.87
2018-01-01T05:23:38.426Z,4.22
2018-01-01T05:26:06.652Z,8.93
2018-01-01T05:28:34.116Z,2.80
2018-01-01T05:31:02.337Z,4.78
2018-01-01T05:33:29.828Z,5.90
2018-01-01T05:35:58.059Z,3.47
2018-01-01T05:38:25.767Z,3.67
2018-01-01T05:40:54.023Z,4.05
2018-01-01T05:43:21.468Z,6.40
2018-01-01T05:45:48.911Z,4.28
2018-01-01T05:48:16.363Z,6.15
2018-01-01T05:50:43.796Z,5.78
2018-01-01T05:53:11.327Z,6.60
2018-01-01T05:55:39.531Z,5.45
2018-01-01T05:58:07.006Z,5.45
2018-01-01T06:00:34.497Z,6.20
2018-01-01T06:03:01.913Z,1.35
2018-01-01T06:05:29.362Z,3.67
2018-01-01T06:07:56.806Z,2.15
2018-01-01T06:10:24.268Z,2.90
2018-01-01T06:12:51.834Z,4.15
2018-01-01T06:15:19.271Z,3.20
2018-01-01T06:17:46.722Z,3.87
2018-01-01T06:20:14.199Z,2.42
2018-01-01T06:22:41.634Z,1.83
2018-01-01T06:25:09.068Z,6.18
2018-01-01T06:27:36.568Z,2.50
2018-01-01T06:30:03.990Z,4.78
2018-01-01T06:32:32.198Z,3.60
2018-01-01T06:34:59.641Z,2.78
2018-01-01T06:37:27.097Z,2.25
2018-01-01T06:39:54.520Z,5.07
2018-01-01T06:42:22.760Z,3.03
2018-01-01T06:44:51.007Z,2.15
2018-01-01T06:47:18.475Z,3.03
2018-01-01T06:49:45.925Z,2.15
2018-01-01T06:52:13.358Z,1.73
2018-01-01T06:54:40.812Z,1.37
2018-01-01T06:57:08.264Z,2.28
2018-01-01T06:59:35.734Z,4.28
2018-01-01T07:02:03.196Z,0.80
2018-01-01T07:04:30.643Z,2.05
2018-01-01T07:06:58.076Z,2.60
2018-01-01T07:09:26.326Z,4.72
2018-01-01T07:11:53.770Z,1.67
2018-01-01T07:14:21.204Z,1.23
2018-01-01T07:16:48.662Z,4.03
2018-01-01T07:19:16.094Z,3.67
2018-01-01T07:21:43.549Z,1.27
2018-01-01T07:24:11.004Z,4.78
2018-01-01T07:26:38.466Z,5.50
2018-01-01T07:29:05.897Z,1.42
2018-01-01T07:31:34.126Z,1.85
2018-01-01T07:34:01.568Z,3.60
2018-01-01T07:36:29.028Z,3.45
2018-01-01T07:38:56.503Z,3.60
2018-01-01T07:41:23.972Z,1.20
2018-01-01T07:43:51.435Z,2.47
2018-01-01T07:46:18.874Z,6.87
2018-01-01T07:48:46.364Z,3.35
2018-01-01T07:51:13.975Z,2.58
2018-01-01T07:53:41.465Z,0.77
2018-01-01T07:56:08.919Z,2.03
2018-01-01T07:58:36.360Z,2.17
2018-01-01T08:01:03.801Z,1.08
2018-01-01T08:03:31.329Z,1.58
2018-01-01T08:05:58.754Z,2.20
2018-01-01T08:08:26.984Z,3.15
2018-01-01T08:10:54.409Z,2.60
2018-01-01T08:13:21.885Z,6.07
2018-01-01T08:15:49.336Z,1.77
2018-01-01T08:18:16.800Z,1.70
2018-01-01T08:20:44.243Z,2.03
2018-01-01T08:23:11.682Z,6.05
2018-01-01T08:25:39.151Z,2.30
2018-01-01T08:28:06.612Z,3.12
2018-01-01T08:30:34.074Z,3.22
2018-01-01T08:33:01.525Z,4.25
2018-01-01T08:35:28.963Z,1.40
2018-01-01T08:37:56.406Z,1.70
2018-01-01T08:40:24.638Z,2.53
2018-01-01T08:42:52.074Z,2.45
2018-01-01T08:45:19.530Z,4.28
2018-01-01T08:47:46.982Z,4.70
2018-01-01T08:50:14.441Z,2.53
2018-01-01T08:52:41.867Z,1.23
2018-01-01T08:55:09.326Z,9.07
2018-01-01T08:57:36.762Z,6.93
2018-01-01T09:00:05.610Z,5.32
2018-01-01T09:02:33.052Z,5.22
2018-01-01T09:05:00.522Z,6.37
2018-01-01T09:07:28.063Z,5.15
2018-01-01T09:09:55.500Z,4.03
2018-01-01T09:12:22.961Z,4.70
2018-01-01T09:14:50.415Z,3.78
2018-01-01T09:17:17.883Z,5.35
2018-01-01T09:19:46.273Z,2.92
2018-01-01T09:22:13.745Z,3.05
2018-01-01T09:24:41.205Z,5.25
2018-01-01T09:27:08.663Z,7.45
2018-01-01T09:29:36.099Z,7.75
2018-01-01T09:32:04.312Z,5.85
2018-01-01T09:34:32.534Z,3.80
2018-01-01T09:37:00.007Z,5.97
2018-01-01T09:39:27.540Z,5.15
2018-01-01T09:41:54.982Z,3.70
2018-01-01T09:44:22.484Z,4.62
2018-01-01T09:46:49.915Z,2.20
2018-01-01T09:49:17.368Z,6.93
2018-01-01T09:51:44.805Z,3.47
2018-01-01T09:54:12.284Z,6.62
2018-01-01T09:56:39.747Z,4.57
2018-01-01T09:59:07.185Z,7.75
2018-01-01T10:01:34.628Z,6.43
2018-01-01T10:04:02.135Z,7.28
2018-01-01T10:06:29.584Z,6.40
2018-01-01T10:08:57.023Z,6.05
2018-01-01T10:11:24.484Z,3.67
2018-01-01T10:13:51.940Z,3.62
2018-01-01T10:16:23.157Z,4.47
2018-01-01T10:18:51.370Z,5.05
2018-01-01T10:21:18.834Z,6.45
2018-01-01T10:23:48.402Z,7.30
2018-01-01T10:26:15.869Z,6.90
2018-01-01T10:28:43.867Z,9.23
2018-01-01T10:31:11.295Z,4.28
2018-01-01T10:33:38.736Z,4.20
2018-01-01T10:36:06.201Z,4.93
2018-01-01T10:38:33.674Z,4.12
2018-01-01T10:41:01.114Z,8.73
2018-01-01T10:43:28.575Z,4.25
2018-01-01T10:45:56.028Z,4.55
2018-01-01T10:48:23.491Z,6.47
2018-01-01T10:50:50.968Z,5.75
2018-01-01T10:53:18.408Z,8.18
2018-01-01T10:55:45.842Z,8.35
2018-01-01T10:58:13.343Z,4.30
2018-01-01T11:00:40.780Z,5.25
2018-01-01T11:03:08.239Z,5.05
2018-01-01T11:05:35.788Z,6.53
2018-01-01T11:08:03.214Z,5.12
2018-01-01T11:10:30.679Z,6.25
2018-01-01T11:12:58.141Z,6.37
2018-01-01T11:15:25.731Z,4.43
2018-01-01T11:17:53.299Z,4.30
2018-01-01T11:20:20.752Z,3.47
2018-01-01T11:22:49.068Z,3.47
2018-01-01T11:25:17.270Z,3.72
2018-01-01T11:27:44.728Z,8.02
2018-01-01T11:30:12.191Z,2.33
2018-01-01T11:32:39.666Z,2.62
2018-01-01T11:35:07.896Z,2.25
2018-01-01T11:37:35.351Z,3.08
2018-01-01T11:40:02.829Z,2.97
2018-01-01T11:42:30.291Z,1.95
2018-01-01T11:44:57.885Z,2.15
2018-01-01T11:47:25.319Z,3.47
2018-01-01T11:49:52.778Z,3.42
2018-01-01T11:52:20.235Z,9.88
2018-01-01T11:54:47.687Z,1.60
2018-01-01T11:57:15.137Z,2.47
2018-01-01T11:59:42.607Z,4.43
2018-01-01T12:02:10.059Z,2.65
2018-01-01T12:04:37.500Z,1.73
2018-01-01T12:07:04.960Z,3.10
2018-01-01T12:09:33.168Z,1.67
2018-01-01T12:12:01.421Z,6.28
2018-01-01T12:14:28.875Z,4.57
2018-01-01T12:16:57.031Z,4.57
2018-01-01T12:19:24.491Z,3.28
2018-01-01T12:21:51.946Z,3.87
2018-01-01T12:24:19.488Z,4.07
2018-01-01T12:26:46.941Z,3.42
2018-01-01T12:29:14.405Z,2.92
2018-01-01T12:31:41.950Z,3.45
2018-01-01T12:34:09.433Z,5.07
2018-01-01T12:36:36.965Z,2.12
2018-01-01T12:39:04.474Z,4.32
2018-01-01T12:41:31.958Z,2.92
2018-01-01T12:43:59.501Z,8.70
2018-01-01T12:46:27.740Z,3.67
2018-01-01T12:48:55.196Z,4.30
2018-01-01T12:51:22.732Z,3.28
2018-01-01T12:53:50.153Z,9.95
2018-01-01T12:56:18.380Z,8.35
2018-01-01T12:58:45.846Z,4.12
2018-01-01T13:01:13.292Z,5.85
2018-01-01T13:03:40.722Z,4.97
2018-01-01T13:06:08.188Z,7.55
2018-01-01T13:08:35.748Z,6.37
2018-01-01T13:11:03.202Z,6.05
2018-01-01T13:13:30.663Z,6.35
2018-01-01T13:15:58.126Z,5.97
2018-01-01T13:18:25.576Z,6.57
2018-01-01T13:20:53.023Z,7.03
2018-01-01T13:23:20.472Z,4.60
2018-01-01T13:25:47.915Z,10.95
2018-01-01T13:28:15.374Z,6.22
2018-01-01T13:30:42.858Z,3.58
2018-01-01T13:33:10.323Z,6.10
2018-01-01T13:35:37.779Z,7.28
2018-01-01T13:38:05.231Z,6.90
2018-01-01T13:40:32.669Z,4.75
2018-01-01T13:43:00.163Z,6.97
2018-01-01T13:45:27.600Z,9.15
2018-01-01T13:47:56.032Z,8.07
2018-01-01T13:50:23.455Z,7.57
2018-01-01T13:52:50.899Z,5.72
2018-01-01T13:55:18.349Z,4.28
2018-01-01T13:57:45.775Z,5.00
2018-01-01T14:00:13.325Z,9.15
2018-01-01T14:02:40.783Z,9.10
2018-01-01T14:05:08.277Z,3.67
2018-01-01T14:07:35.733Z,7.22
2018-01-01T14:10:03.187Z,5.95
2018-01-01T14:12:30.631Z,11.88
2018-01-01T14:14:58.088Z,5.75
2018-01-01T14:17:25.558Z,6.57
2018-01-01T14:19:53.032Z,6.32
2018-01-01T14:22:20.525Z,7.78
2018-01-01T14:24:48.717Z,6.75
2018-01-01T14:27:16.169Z,4.68
2018-01-01T14:29:43.635Z,9.20
2018-01-01T14:32:11.198Z,8.02
2018-01-01T14:34:38.632Z,7.55
2018-01-01T14:37:06.078Z,5.65
2018-01-01T14:39:33.586Z,6.15
2018-01-01T14:42:01.023Z,6.37
2018-01-01T14:44:28.473Z,6.30
2018-01-01T14:46:55.927Z,2.20
2018-01-01T14:49:23.391Z,4.60
2018-01-01T14:51:50.847Z,4.32
2018-01-01T14:54:18.297Z,6.93
2018-01-01T14:56:45.747Z,5.28
2018-01-01T14:59:13.204Z,6.53
2018-01-01T15:01:40.638Z,3.00
2018-01-01T15:04:08.287Z,5.85
2018-01-01T15:06:35.703Z,8.88
2018-01-01T15:09:03.160Z,3.95
2018-01-01T15:11:30.601Z,5.70
2018-01-01T15:13:58.145Z,6.05
2018-01-01T15:16:25.735Z,6.87
2018-01-01T15:18:53.217Z,7.93
2018-01-01T15:21:21.536Z,9.35
2018-01-01T15:23:49.039Z,5.68
2018-01-01T15:26:16.502Z,3.40
2018-01-01T15:28:43.931Z,5.60
2018-01-01T15:31:11.390Z,6.57
2018-01-01T15:33:38.823Z,9.55
2018-01-01T15:36:06.301Z,8.95
2018-01-01T15:38:33.836Z,5.12
2018-01-01T15:41:01.279Z,6.30
2018-01-01T15:43:28.726Z,7.43
2018-01-01T15:45:56.188Z,7.32
2018-01-01T15:48:24.119Z,7.12
2018-01-01T15:50:52.361Z,4.47
2018-01-01T15:53:19.862Z,4.95
2018-01-01T15:55:48.079Z,8.60
2018-01-01T15:58:15.535Z,7.12
2018-01-01T16:00:42.979Z,3.75
2018-01-01T16:03:10.425Z,7.70
2018-01-01T16:05:37.926Z,9.10
2018-01-01T16:08:05.376Z,4.18
2018-01-01T16:10:32.864Z,4.80
2018-01-01T16:13:01.024Z,2.92
2018-01-01T16:15:28.483Z,5.72
2018-01-01T16:17:55.943Z,7.57
2018-01-01T16:20:23.489Z,5.32
2018-01-01T16:22:50.934Z,1.90
2018-01-01T16:25:18.400Z,6.28
2018-01-01T16:27:45.859Z,6.50
2018-01-01T16:30:13.392Z,7.35
2018-01-01T16:32:40.847Z,10.70
2018-01-01T16:35:08.375Z,7.95
2018-01-01T16:37:35.831Z,7.53
2018-01-01T16:40:03.279Z,4.57
2018-01-01T16:42:31.458Z,5.85
2018-01-01T16:44:58.919Z,5.82
2018-01-01T16:47:26.371Z,9.23
2018-01-01T16:49:53.820Z,6.60
2018-01-01T16:52:21.276Z,7.22
2018-01-01T16:54:48.705Z,4.97
2018-01-01T16:57:16.978Z,5.20
2018-01-01T16:59:45.763Z,8.88
2018-01-01T17:02:13.216Z,9.88
2018-01-01T17:04:40.647Z,8.63
2018-01-01T17:07:08.150Z,7.03
2018-01-01T17:09:35.640Z,7.18
2018-01-01T17:12:03.084Z,7.35
2018-01-01T17:14:30.535Z,7.00
2018-01-01T17:16:57.970Z,6.45
2018-01-01T17:19:25.448Z,6.90
2018-01-01T17:21:52.905Z,6.93
2018-01-01T17:24:20.364Z,5.62
2018-01-01T17:26:47.816Z,5.62
2018-01-01T17:29:15.306Z,13.27
2018-01-01T17:31:42.748Z,7.78
2018-01-01T17:34:10.259Z,10.48
2018-01-01T17:36:38.496Z,5.37
2018-01-01T17:39:05.954Z,6.53
2018-01-01T17:41:33.396Z,5.97
2018-01-01T17:44:00.878Z,5.25
2018-01-01T17:46:28.331Z,8.00
2018-01-01T17:48:55.811Z,6.07
2018-01-01T17:51:24.153Z,3.53
2018-01-01T17:53:51.646Z,5.03
2018-01-01T17:56:19.143Z,3.80
2018-01-01T17:58:46.625Z,6.18
2018-01-01T18:01:14.170Z,7.62
2018-01-01T18:03:41.701Z,3.62
2018-01-01T18:06:09.143Z,6.30
2018-01-01T18:08:36.712Z,7.22
2018-01-01T18:11:04.226Z,5.60
2018-01-01T18:13:31.720Z,3.60
2018-01-01T18:15:59.957Z,4.50
2018-01-01T18:18:27.479Z,4.75
2018-01-01T18:20:55.710Z,4.32
2018-01-01T18:23:23.935Z,5.35
2018-01-01T18:25:51.854Z,2.97
2018-01-01T18:28:20.094Z,2.40
2018-01-01T18:30:48.300Z,4.32
2018-01-01T18:33:17.245Z,6.05
2018-01-01T18:35:45.443Z,2.28
2018-01-01T18:38:12.985Z,3.87
2018-01-01T18:40:40.401Z,4.22
2018-01-01T18:43:07.866Z,6.00
2018-01-01T18:45:35.300Z,6.40
2018-01-01T18:48:02.786Z,1.62
2018-01-01T18:50:30.254Z,3.10
2018-01-01T18:52:57.732Z,2.67
2018-01-01T18:55:25.214Z,2.80
2018-01-01T18:57:53.443Z,4.75
2018-01-01T19:00:20.897Z,5.15
2018-01-01T19:02:48.336Z,3.92
2018-01-01T19:05:15.899Z,3.30
2018-01-01T19:07:43.360Z,5.53
2018-01-01T19:10:10.790Z,7.62
2018-01-01T19:12:38.261Z,7.07
2018-01-01T19:15:05.727Z,3.08
2018-01-01T19:17:33.156Z,1.37
2018-01-01T19:20:00.626Z,2.60
2018-01-01T19:22:28.056Z,2.37
2018-01-01T19:24:55.534Z,3.33
2018-01-01T19:27:23.063Z,6.10
2018-01-01T19:29:50.558Z,3.78
2018-01-01T19:32:17.975Z,1.65
2018-01-01T19:34:46.214Z,1.87
2018-01-01T19:37:13.664Z,2.22
2018-01-01T19:39:41.151Z,1.60
2018-01-01T19:42:08.589Z,4.87
2018-01-01T19:44:36.192Z,2.35
2018-01-01T19:47:03.642Z,2.80
2018-01-01T19:49:31.871Z,1.12
2018-01-01T19:52:05.458Z,3.15
2018-01-01T19:54:32.919Z,2.15
2018-01-01T19:57:00.400Z,1.20
2018-01-01T19:59:27.862Z,1.98
2018-01-01T20:01:55.306Z,3.80
2018-01-01T20:04:23.451Z,3.95
2018-01-01T20:06:50.931Z,2.30
2018-01-01T20:09:18.389Z,1.30
2018-01-01T20:11:45.939Z,1.52
2018-01-01T20:14:13.476Z,1.37
2018-01-01T20:16:40.898Z,2.40
2018-01-01T20:19:09.101Z,2.00
2018-01-01T20:21:36.571Z,3.65
2018-01-01T20:24:05.017Z,2.90
2018-01-01T20:26:32.457Z,5.20
2018-01-01T20:28:59.954Z,3.30
2018-01-01T20:31:27.383Z,2.55
2018-01-01T20:33:54.965Z,2.15
2018-01-01T20:36:22.383Z,2.67
2018-01-01T20:38:50.326Z,1.85
2018-01-01T20:41:17.824Z,4.53
2018-01-01T20:43:46.040Z,1.77
2018-01-01T20:46:13.544Z,2.58
2018-01-01T20:48:41.822Z,1.35
2018-01-01T20:51:10.050Z,1.77
2018-01-01T20:53:37.504Z,2.00
2018-01-01T20:56:04.959Z,0.95
2018-01-01T20:58:32.596Z,4.62
2018-01-01T21:01:00.086Z,1.05
2018-01-01T21:03:27.538Z,1.50
2018-01-01T21:05:55.053Z,0.70
2018-01-01T21:08:22.603Z,0.90
2018-01-01T21:10:50.819Z,1.70
2018-01-01T21:13:18.288Z,0.93
2018-01-01T21:15:45.759Z,5.05
2018-01-01T21:18:13.230Z,1.25
2018-01-01T21:20:41.431Z,0.90
2018-01-01T21:23:08.921Z,2.97
2018-01-01T21:25:36.381Z,1.23
2018-01-01T21:28:03.962Z,0.77
2018-01-01T21:30:31.465Z,2.92
2018-01-01T21:32:58.908Z,2.05
2018-01-01T21:35:26.447Z,1.58
2018-01-01T21:37:54.675Z,1.15
2018-01-01T21:40:22.410Z,1.05
2018-01-01T21:42:49.840Z,2.03
2018-01-01T21:45:17.313Z,1.90
2018-01-01T21:47:44.766Z,0.90
2018-01-01T21:50:12.288Z,2.53
2018-01-01T21:52:39.760Z,2.53
2018-01-01T21:55:07.984Z,3.47
2018-01-01T21:57:35.499Z,1.92
2018-01-01T22:00:02.956Z,1.35
2018-01-01T22:02:30.414Z,1.60
2018-01-01T22:04:57.963Z,0.80
2018-01-01T22:07:26.244Z,1.75
2018-01-01T22:09:54.518Z,0.77
2018-01-01T22:12:22.775Z,1.25
2018-01-01T22:14:50.207Z,0.60
2018-01-01T22:17:17.670Z,0.50
2018-01-01T22:19:45.103Z,1.75
2018-01-01T22:22:14.234Z,0.90
2018-01-01T22:24:41.673Z,1.23
2018-01-01T22:27:09.119Z,2.25
2018-01-01T22:29:36.578Z,1.35
2018-01-01T22:32:04.011Z,0.93
2018-01-01T22:34:31.466Z,2.28
2018-01-01T22:36:58.908Z,0.80
2018-01-01T22:39:26.364Z,1.10
2018-01-01T22:41:53.860Z,1.02
2018-01-01T22:44:21.303Z,1.48
2018-01-01T22:46:48.759Z,0.65
2018-01-01T22:49:16.228Z,1.15
2018-01-01T22:51:43.660Z,2.22
2018-01-01T22:54:11.194Z,1.27
2018-01-01T22:56:38.658Z,0.98
2018-01-01T22:59:06.146Z,1.37
2018-01-01T23:01:33.581Z,1.23
2018-01-01T23:04:01.006Z,0.80
2018-01-01T23:06:29.428Z,2.28
2018-01-01T23:08:57.636Z,1.65
2018-01-01T23:11:25.105Z,1.05
2018-01-01T23:13:53.413Z,2.58
2018-01-01T23:16:21.475Z,1.20
2018-01-01T23:18:48.893Z,0.85
2018-01-01T23:21:16.355Z,1.00
2018-01-01T23:23:44.555Z,1.25
2018-01-01T23:26:12.028Z,2.12
2018-01-01T23:28:39.481Z,0.52
2018-01-01T23:31:06.920Z,2.45
2018-01-01T23:33:34.391Z,0.77
2018-01-01T23:36:01.839Z,0.52
2018-01-01T23:38:29.297Z,0.25
2018-01-01T23:40:56.759Z,0.50
2018-01-01T23:43:24.265Z,0.90
2018-01-01T23:45:51.694Z,0.57
2018-01-01T23:48:20.158Z,0.70
2018-01-01T23:50:47.575Z,0.55
2018-01-01T23:53:15.796Z,0.60
2018-01-01T23:55:43.227Z,0.60
2018-01-01T23:58:10.695Z,0.50
